Aérodrome :
LOGIN :

S'inscrire | Disclaimer

   EN    FR    IT 

 










Légende :    VFR   VFR Marginal   IFR   IFR Intensif   IFR Très Intensif
Visi : 
Plafond : 
>= 8 km
>= 3000ft
5 à 8 km
1000 à 3000 ft
1500m à 5 km
500 à 1000 ft
800 à 1500m
200 à 500 ft
< 800m
< 200 ft
Symboles :   Orages  Brouillard  Fortes neiges  Fortes précipitations  Vent > 20 kt
SIGMETs :   Divers  Orages  Givrage  Turbulence  Onde Orograph.  Cendres Volcan.







- Altitude de l'aérodrome : 3 ft
- Code IATA : DHR


EHKD - Den Helder De Kooy

DERNIER METAR :
  • 280755Z AUTO 32009KT 290V350 9999 FEW180 09/04 Q1013 BLU 33007KT 9999 SCT025 TEMPO SCT015CB BKN020

METARs EXPIRÉS :
  • 280725Z AUTO 31008KT 280V340 9999 FEW023 09/04 Q1012 BLU 33007KT 9999 SCT035 TEMPO SCT015CB BKN020
  • 280655Z AUTO 32005KT 280V350 9999 FEW021 BKN035 09/05 Q1012 REDZ BLU 33007KT 9999 SCT035 TEMPO SCT015CB BKN020
  • 280627Z AUTO 35005KT 310V040 9999 -RA FEW012 SCT030 OVC035 07/04 Q1012 BLU 33007KT 9999 SCT035 TEMPO SCT015CB BKN020
  • 280625Z AUTO 34006KT 290V020 9999 FEW023 SCT026 BKN030 07/04 Q1012 BLU 32007KT 9999 SCT035 TEMPO SCT015CB BKN020
  • 280557Z AUTO 31005KT 270V340 9999 FEW020 OVC038 09/05 Q1012 BLU 32007KT 9999 SCT035 TEMPO SCT015CB BKN020
  • 280555Z AUTO 31004KT 260V360 9999 SCT020 BKN038 08/04 Q1012 WHT 33007KT 9999 SCT035 TEMPO SCT015CB BKN020
  • 280525Z AUTO VRB02KT 9999 SCT034 SCT040 OVC055 07/05 Q1012 BLU 33007KT 9999 BKN035 TEMPO SCT015CB BKN020

TAF TAF EHKD
Valide du 28 à 05h jusqu'au 28 à 17h UTC


280439Z 2805/2817 32004KT 9999 FEW025 BKN040
TEMPO 2805/2811 FEW015 SCT018CB BKN030
BECMG 2809/2811 32012KT
Pas de NOTAMs connus pour ce terrain.



MET'MAP, la Météo Aéronautique d'un coup d'oeil ! - Copyright ORBIFLY Décembre 2007 - Disclaimer

ORBIFLY MET'MAP TEAM :

Programmation & Développement : Alexandra Zaïnal
Conception & Développement : Baudouin d'Aumeries
Co-Programmation & Développement : Marc-Olivier Méhu
Soutien technique & logistique : Manuel Goepfert

Contact : metmap@orbifly.com




SOURCES & CREDITS :

   NOAA